sensor_id;sensor_type;location;lat;lon;timestamp;temperature;humidity
19281;DHT22;9774;52.034;5.342;2023-12-20T00:01:38;10.70;70.00
19281;DHT22;9774;52.034;5.342;2023-12-20T00:04:06;10.70;69.90
19281;DHT22;9774;52.034;5.342;2023-12-20T00:06:33;10.70;69.90
19281;DHT22;9774;52.034;5.342;2023-12-20T00:09:00;10.70;69.90
19281;DHT22;9774;52.034;5.342;2023-12-20T00:11:27;10.70;69.80
19281;DHT22;9774;52.034;5.342;2023-12-20T00:13:55;10.60;69.80
19281;DHT22;9774;52.034;5.342;2023-12-20T00:16:22;10.60;69.80
19281;DHT22;9774;52.034;5.342;2023-12-20T00:18:49;10.60;69.80
19281;DHT22;9774;52.034;5.342;2023-12-20T00:21:16;10.60;69.80
19281;DHT22;9774;52.034;5.342;2023-12-20T00:23:43;10.60;69.80
19281;DHT22;9774;52.034;5.342;2023-12-20T00:26:10;10.60;69.80
19281;DHT22;9774;52.034;5.342;2023-12-20T00:28:37;10.50;69.70
19281;DHT22;9774;52.034;5.342;2023-12-20T00:31:05;10.50;69.70
19281;DHT22;9774;52.034;5.342;2023-12-20T00:33:32;10.50;69.70
19281;DHT22;9774;52.034;5.342;2023-12-20T00:35:59;10.50;69.70
19281;DHT22;9774;52.034;5.342;2023-12-20T00:38:27;10.50;69.60
19281;DHT22;9774;52.034;5.342;2023-12-20T00:40:53;10.40;69.40
19281;DHT22;9774;52.034;5.342;2023-12-20T00:43:21;10.40;70.10
19281;DHT22;9774;52.034;5.342;2023-12-20T00:45:48;10.30;69.40
19281;DHT22;9774;52.034;5.342;2023-12-20T00:48:16;10.30;69.40
19281;DHT22;9774;52.034;5.342;2023-12-20T00:50:43;10.30;69.40
19281;DHT22;9774;52.034;5.342;2023-12-20T00:53:10;10.30;69.50
19281;DHT22;9774;52.034;5.342;2023-12-20T00:55:37;10.30;69.60
19281;DHT22;9774;52.034;5.342;2023-12-20T00:58:04;10.20;69.50
19281;DHT22;9774;52.034;5.342;2023-12-20T01:00:31;10.20;69.50
19281;DHT22;9774;52.034;5.342;2023-12-20T01:02:58;10.20;69.50
19281;DHT22;9774;52.034;5.342;2023-12-20T01:05:26;10.10;69.60
19281;DHT22;9774;52.034;5.342;2023-12-20T01:07:54;10.10;69.70
19281;DHT22;9774;52.034;5.342;2023-12-20T01:10:22;10.10;69.70
19281;DHT22;9774;52.034;5.342;2023-12-20T01:12:49;10.10;69.70
19281;DHT22;9774;52.034;5.342;2023-12-20T01:15:16;10.00;69.60
19281;DHT22;9774;52.034;5.342;2023-12-20T01:17:43;10.00;69.60
19281;DHT22;9774;52.034;5.342;2023-12-20T01:20:10;10.00;69.60
19281;DHT22;9774;52.034;5.342;2023-12-20T01:22:38;10.00;69.60
19281;DHT22;9774;52.034;5.342;2023-12-20T01:25:06;10.00;69.70
19281;DHT22;9774;52.034;5.342;2023-12-20T01:27:33;9.90;69.60
19281;DHT22;9774;52.034;5.342;2023-12-20T01:30:00;9.90;69.70
19281;DHT22;9774;52.034;5.342;2023-12-20T01:32:27;9.90;69.80
19281;DHT22;9774;52.034;5.342;2023-12-20T01:34:55;9.90;69.90
19281;DHT22;9774;52.034;5.342;2023-12-20T01:37:22;9.90;70.00
19281;DHT22;9774;52.034;5.342;2023-12-20T01:39:52;9.90;70.10
19281;DHT22;9774;52.034;5.342;2023-12-20T01:42:19;9.90;70.20
19281;DHT22;9774;52.034;5.342;2023-12-20T01:44:47;10.00;70.30
19281;DHT22;9774;52.034;5.342;2023-12-20T01:47:14;10.00;70.30
19281;DHT22;9774;52.034;5.342;2023-12-20T01:49:41;10.00;70.30
19281;DHT22;9774;52.034;5.342;2023-12-20T01:52:09;10.00;70.30
19281;DHT22;9774;52.034;5.342;2023-12-20T01:54:36;10.00;70.30
19281;DHT22;9774;52.034;5.342;2023-12-20T01:57:06;10.00;70.30
19281;DHT22;9774;52.034;5.342;2023-12-20T01:59:34;10.00;70.30
19281;DHT22;9774;52.034;5.342;2023-12-20T02:02:03;10.10;70.40
19281;DHT22;9774;52.034;5.342;2023-12-20T02:04:30;10.10;70.30
19281;DHT22;9774;52.034;5.342;2023-12-20T02:06:59;10.10;70.30
19281;DHT22;9774;52.034;5.342;2023-12-20T02:09:26;10.10;70.40
19281;DHT22;9774;52.034;5.342;2023-12-20T02:11:54;10.10;70.30
19281;DHT22;9774;52.034;5.342;2023-12-20T02:14:22;10.20;70.40
19281;DHT22;9774;52.034;5.342;2023-12-20T02:16:49;10.20;70.40
19281;DHT22;9774;52.034;5.342;2023-12-20T02:19:17;10.20;70.30
19281;DHT22;9774;52.034;5.342;2023-12-20T02:21:47;10.20;70.40
19281;DHT22;9774;52.034;5.342;2023-12-20T02:24:14;10.20;70.40
19281;DHT22;9774;52.034;5.342;2023-12-20T02:26:43;10.20;70.40
19281;DHT22;9774;52.034;5.342;2023-12-20T02:29:10;10.20;70.40
19281;DHT22;9774;52.034;5.342;2023-12-20T02:31:37;10.30;70.50
19281;DHT22;9774;52.034;5.342;2023-12-20T02:34:04;10.30;70.40
19281;DHT22;9774;52.034;5.342;2023-12-20T02:36:31;10.30;70.30
19281;DHT22;9774;52.034;5.342;2023-12-20T02:39:00;10.30;70.20
19281;DHT22;9774;52.034;5.342;2023-12-20T02:41:26;10.30;70.20
19281;DHT22;9774;52.034;5.342;2023-12-20T02:43:53;10.30;70.20
19281;DHT22;9774;52.034;5.342;2023-12-20T02:46:20;10.30;70.20
19281;DHT22;9774;52.034;5.342;2023-12-20T02:48:47;10.30;70.20
19281;DHT22;9774;52.034;5.342;2023-12-20T02:51:14;10.30;70.20
19281;DHT22;9774;52.034;5.342;2023-12-20T02:53:41;10.30;70.20
19281;DHT22;9774;52.034;5.342;2023-12-20T02:56:09;10.40;70.30
19281;DHT22;9774;52.034;5.342;2023-12-20T02:58:37;10.40;70.40
19281;DHT22;9774;52.034;5.342;2023-12-20T03:01:03;10.40;70.50
19281;DHT22;9774;52.034;5.342;2023-12-20T03:03:31;10.40;70.50
19281;DHT22;9774;52.034;5.342;2023-12-20T03:05:57;10.40;70.50
19281;DHT22;9774;52.034;5.342;2023-12-20T03:08:25;10.50;70.60
19281;DHT22;9774;52.034;5.342;2023-12-20T03:10:51;10.50;70.50
19281;DHT22;9774;52.034;5.342;2023-12-20T03:13:20;10.50;70.50
19281;DHT22;9774;52.034;5.342;2023-12-20T03:15:47;10.50;70.40
19281;DHT22;9774;52.034;5.342;2023-12-20T03:18:14;10.50;70.40
19281;DHT22;9774;52.034;5.342;2023-12-20T03:20:41;10.60;70.40
19281;DHT22;9774;52.034;5.342;2023-12-20T03:23:08;10.60;70.40
19281;DHT22;9774;52.034;5.342;2023-12-20T03:25:35;10.60;70.50
19281;DHT22;9774;52.034;5.342;2023-12-20T03:28:02;10.60;70.40
19281;DHT22;9774;52.034;5.342;2023-12-20T03:30:30;10.70;70.50
19281;DHT22;9774;52.034;5.342;2023-12-20T03:32:57;10.70;70.50
19281;DHT22;9774;52.034;5.342;2023-12-20T03:35:24;10.70;70.50
19281;DHT22;9774;52.034;5.342;2023-12-20T03:37:50;10.80;70.50
19281;DHT22;9774;52.034;5.342;2023-12-20T03:40:17;10.80;70.50
19281;DHT22;9774;52.034;5.342;2023-12-20T03:42:44;10.80;70.40
19281;DHT22;9774;52.034;5.342;2023-12-20T03:45:11;10.80;70.40
19281;DHT22;9774;52.034;5.342;2023-12-20T03:47:39;10.90;70.40
19281;DHT22;9774;52.034;5.342;2023-12-20T03:50:07;10.90;70.30
19281;DHT22;9774;52.034;5.342;2023-12-20T03:52:34;10.90;70.30
19281;DHT22;9774;52.034;5.342;2023-12-20T03:55:01;10.90;70.10
19281;DHT22;9774;52.034;5.342;2023-12-20T03:57:28;10.90;70.10
19281;DHT22;9774;52.034;5.342;2023-12-20T03:59:55;10.90;70.10
19281;DHT22;9774;52.034;5.342;2023-12-20T04:02:22;10.90;70.10
19281;DHT22;9774;52.034;5.342;2023-12-20T04:04:50;10.90;70.00
19281;DHT22;9774;52.034;5.342;2023-12-20T04:07:18;11.00;70.00
19281;DHT22;9774;52.034;5.342;2023-12-20T04:09:45;11.00;69.90
19281;DHT22;9774;52.034;5.342;2023-12-20T04:12:13;11.00;69.80
19281;DHT22;9774;52.034;5.342;2023-12-20T04:14:40;11.00;69.70
19281;DHT22;9774;52.034;5.342;2023-12-20T04:17:07;11.00;69.80
19281;DHT22;9774;52.034;5.342;2023-12-20T04:19:34;11.00;69.80
19281;DHT22;9774;52.034;5.342;2023-12-20T04:22:03;11.00;69.80
19281;DHT22;9774;52.034;5.342;2023-12-20T04:24:30;11.00;69.80
19281;DHT22;9774;52.034;5.342;2023-12-20T04:26:57;11.00;69.70
19281;DHT22;9774;52.034;5.342;2023-12-20T04:29:24;10.90;69.60
19281;DHT22;9774;52.034;5.342;2023-12-20T04:31:51;11.00;69.70
19281;DHT22;9774;52.034;5.342;2023-12-20T04:34:18;10.90;69.60
19281;DHT22;9774;52.034;5.342;2023-12-20T04:36:45;11.00;69.70
19281;DHT22;9774;52.034;5.342;2023-12-20T04:39:13;11.00;69.80
19281;DHT22;9774;52.034;5.342;2023-12-20T04:41:41;11.00;69.80
19281;DHT22;9774;52.034;5.342;2023-12-20T04:44:08;11.00;69.80
19281;DHT22;9774;52.034;5.342;2023-12-20T04:46:34;11.10;69.80
19281;DHT22;9774;52.034;5.342;2023-12-20T04:49:02;11.10;69.80
19281;DHT22;9774;52.034;5.342;2023-12-20T04:51:33;11.10;69.80
19281;DHT22;9774;52.034;5.342;2023-12-20T04:54:00;11.10;69.70
19281;DHT22;9774;52.034;5.342;2023-12-20T04:56:28;11.10;69.60
19281;DHT22;9774;52.034;5.342;2023-12-20T04:58:55;11.10;69.60
19281;DHT22;9774;52.034;5.342;2023-12-20T05:01:22;11.10;69.50
19281;DHT22;9774;52.034;5.342;2023-12-20T05:03:49;11.10;69.50
19281;DHT22;9774;52.034;5.342;2023-12-20T05:06:16;11.20;69.50
19281;DHT22;9774;52.034;5.342;2023-12-20T05:08:43;11.20;69.50
19281;DHT22;9774;52.034;5.342;2023-12-20T05:11:10;11.20;69.40
19281;DHT22;9774;52.034;5.342;2023-12-20T05:13:40;11.30;69.40
19281;DHT22;9774;52.034;5.342;2023-12-20T05:16:07;11.30;69.40
19281;DHT22;9774;52.034;5.342;2023-12-20T05:18:34;11.30;69.40
19281;DHT22;9774;52.034;5.342;2023-12-20T05:21:01;11.30;69.40
19281;DHT22;9774;52.034;5.342;2023-12-20T05:23:28;11.40;69.30
19281;DHT22;9774;52.034;5.342;2023-12-20T05:25:55;11.30;69.20
19281;DHT22;9774;52.034;5.342;2023-12-20T05:28:22;11.40;69.30
19281;DHT22;9774;52.034;5.342;2023-12-20T05:30:50;11.40;69.30
19281;DHT22;9774;52.034;5.342;2023-12-20T05:33:18;11.40;69.30
19281;DHT22;9774;52.034;5.342;2023-12-20T05:35:45;11.40;69.30
19281;DHT22;9774;52.034;5.342;2023-12-20T05:38:11;11.40;69.30
19281;DHT22;9774;52.034;5.342;2023-12-20T05:40:38;11.50;69.20
19281;DHT22;9774;52.034;5.342;2023-12-20T05:43:05;11.50;69.10
19281;DHT22;9774;52.034;5.342;2023-12-20T05:45:32;11.50;69.10
19281;DHT22;9774;52.034;5.342;2023-12-20T05:48:01;11.50;69.00
19281;DHT22;9774;52.034;5.342;2023-12-20T05:50:28;11.50;69.00
19281;DHT22;9774;52.034;5.342;2023-12-20T05:52:55;11.50;69.00
19281;DHT22;9774;52.034;5.342;2023-12-20T05:55:22;11.50;68.90
19281;DHT22;9774;52.034;5.342;2023-12-20T05:57:49;11.50;68.80
19281;DHT22;9774;52.034;5.342;2023-12-20T06:00:16;11.60;68.90
19281;DHT22;9774;52.034;5.342;2023-12-20T06:02:44;11.60;68.80
19281;DHT22;9774;52.034;5.342;2023-12-20T06:05:12;11.60;68.70
19281;DHT22;9774;52.034;5.342;2023-12-20T06:07:39;11.60;68.70
19281;DHT22;9774;52.034;5.342;2023-12-20T06:10:07;11.60;68.70
19281;DHT22;9774;52.034;5.342;2023-12-20T06:12:34;11.60;68.70
19281;DHT22;9774;52.034;5.342;2023-12-20T06:15:02;11.60;68.70
19281;DHT22;9774;52.034;5.342;2023-12-20T06:17:29;11.60;68.60
19281;DHT22;9774;52.034;5.342;2023-12-20T06:19:56;11.60;68.70
19281;DHT22;9774;52.034;5.342;2023-12-20T06:22:25;11.60;68.60
19281;DHT22;9774;52.034;5.342;2023-12-20T06:24:52;11.60;68.50
19281;DHT22;9774;52.034;5.342;2023-12-20T06:27:19;11.60;68.50
19281;DHT22;9774;52.034;5.342;2023-12-20T06:29:46;11.60;68.50
19281;DHT22;9774;52.034;5.342;2023-12-20T06:32:13;11.70;68.50
19281;DHT22;9774;52.034;5.342;2023-12-20T06:34:40;11.70;68.50
19281;DHT22;9774;52.034;5.342;2023-12-20T06:37:07;11.60;68.50
19281;DHT22;9774;52.034;5.342;2023-12-20T06:39:35;11.70;68.50
19281;DHT22;9774;52.034;5.342;2023-12-20T06:42:03;11.70;68.40
19281;DHT22;9774;52.034;5.342;2023-12-20T06:44:30;11.70;68.30
19281;DHT22;9774;52.034;5.342;2023-12-20T06:46:57;11.70;68.40
19281;DHT22;9774;52.034;5.342;2023-12-20T06:49:24;11.70;68.40
19281;DHT22;9774;52.034;5.342;2023-12-20T06:51:51;11.70;68.50
19281;DHT22;9774;52.034;5.342;2023-12-20T06:54:18;11.70;68.40
19281;DHT22;9774;52.034;5.342;2023-12-20T06:56:47;11.70;68.50
19281;DHT22;9774;52.034;5.342;2023-12-20T06:59:13;11.70;68.50
19281;DHT22;9774;52.034;5.342;2023-12-20T07:01:41;11.70;68.50
19281;DHT22;9774;52.034;5.342;2023-12-20T07:04:08;11.70;68.50
19281;DHT22;9774;52.034;5.342;2023-12-20T07:06:36;11.70;68.50
19281;DHT22;9774;52.034;5.342;2023-12-20T07:09:03;11.70;68.50
19281;DHT22;9774;52.034;5.342;2023-12-20T07:11:30;11.70;68.50
19281;DHT22;9774;52.034;5.342;2023-12-20T07:13:57;11.70;68.40
19281;DHT22;9774;52.034;5.342;2023-12-20T07:16:24;11.70;68.40
19281;DHT22;9774;52.034;5.342;2023-12-20T07:18:51;11.70;68.40
19281;DHT22;9774;52.034;5.342;2023-12-20T07:21:18;11.70;68.30
19281;DHT22;9774;52.034;5.342;2023-12-20T07:23:45;11.80;68.40
19281;DHT22;9774;52.034;5.342;2023-12-20T07:26:12;11.70;68.30
19281;DHT22;9774;52.034;5.342;2023-12-20T07:28:39;11.80;68.40
19281;DHT22;9774;52.034;5.342;2023-12-20T07:31:08;11.80;68.40
19281;DHT22;9774;52.034;5.342;2023-12-20T07:33:35;11.80;68.40
19281;DHT22;9774;52.034;5.342;2023-12-20T07:36:02;11.80;68.40
19281;DHT22;9774;52.034;5.342;2023-12-20T07:38:30;11.80;68.40
19281;DHT22;9774;52.034;5.342;2023-12-20T07:40:56;11.80;68.30
19281;DHT22;9774;52.034;5.342;2023-12-20T07:43:23;11.80;68.30
19281;DHT22;9774;52.034;5.342;2023-12-20T07:45:50;11.80;68.30
19281;DHT22;9774;52.034;5.342;2023-12-20T07:48:19;11.90;68.30
19281;DHT22;9774;52.034;5.342;2023-12-20T07:50:48;11.90;68.30
19281;DHT22;9774;52.034;5.342;2023-12-20T07:53:15;11.90;68.30
19281;DHT22;9774;52.034;5.342;2023-12-20T07:55:42;11.90;68.30
19281;DHT22;9774;52.034;5.342;2023-12-20T07:58:09;11.90;68.30
19281;DHT22;9774;52.034;5.342;2023-12-20T08:00:36;11.90;68.30
19281;DHT22;9774;52.034;5.342;2023-12-20T08:03:04;12.00;68.20
19281;DHT22;9774;52.034;5.342;2023-12-20T08:05:32;12.00;68.20
19281;DHT22;9774;52.034;5.342;2023-12-20T08:07:59;11.90;68.10
19281;DHT22;9774;52.034;5.342;2023-12-20T08:10:26;12.00;68.20
19281;DHT22;9774;52.034;5.342;2023-12-20T08:12:55;12.00;68.20
19281;DHT22;9774;52.034;5.342;2023-12-20T08:15:22;12.00;68.20
19281;DHT22;9774;52.034;5.342;2023-12-20T08:17:49;12.00;68.80
19281;DHT22;9774;52.034;5.342;2023-12-20T08:20:16;12.00;68.20
19281;DHT22;9774;52.034;5.342;2023-12-20T08:22:46;12.00;68.20
19281;DHT22;9774;52.034;5.342;2023-12-20T08:25:19;12.00;68.20
19281;DHT22;9774;52.034;5.342;2023-12-20T08:27:46;12.10;68.30
19281;DHT22;9774;52.034;5.342;2023-12-20T08:30:14;12.10;68.10
19281;DHT22;9774;52.034;5.342;2023-12-20T08:32:42;12.10;68.10
19281;DHT22;9774;52.034;5.342;2023-12-20T08:35:09;12.10;68.00
19281;DHT22;9774;52.034;5.342;2023-12-20T08:37:36;12.10;68.10
19281;DHT22;9774;52.034;5.342;2023-12-20T08:40:06;12.10;68.00
19281;DHT22;9774;52.034;5.342;2023-12-20T08:42:33;12.10;67.90
19281;DHT22;9774;52.034;5.342;2023-12-20T08:45:00;12.20;67.80
19281;DHT22;9774;52.034;5.342;2023-12-20T08:47:29;12.10;67.80
19281;DHT22;9774;52.034;5.342;2023-12-20T08:49:56;12.20;67.80
19281;DHT22;9774;52.034;5.342;2023-12-20T08:52:25;12.20;67.90
19281;DHT22;9774;52.034;5.342;2023-12-20T08:54:52;12.20;67.80
19281;DHT22;9774;52.034;5.342;2023-12-20T08:57:21;12.20;67.80
19281;DHT22;9774;52.034;5.342;2023-12-20T08:59:49;12.20;67.80
19281;DHT22;9774;52.034;5.342;2023-12-20T09:02:16;12.20;67.80
19281;DHT22;9774;52.034;5.342;2023-12-20T09:04:43;12.20;67.70
19281;DHT22;9774;52.034;5.342;2023-12-20T09:07:21;12.20;67.80
19281;DHT22;9774;52.034;5.342;2023-12-20T09:09:49;12.20;67.70
19281;DHT22;9774;52.034;5.342;2023-12-20T09:12:17;12.20;67.70
19281;DHT22;9774;52.034;5.342;2023-12-20T09:14:46;12.30;67.70
19281;DHT22;9774;52.034;5.342;2023-12-20T09:17:13;12.30;67.80
19281;DHT22;9774;52.034;5.342;2023-12-20T09:19:41;12.20;68.10
19281;DHT22;9774;52.034;5.342;2023-12-20T09:22:09;12.30;67.80
19281;DHT22;9774;52.034;5.342;2023-12-20T09:24:37;12.30;67.90
19281;DHT22;9774;52.034;5.342;2023-12-20T09:27:05;12.30;67.90
19281;DHT22;9774;52.034;5.342;2023-12-20T09:29:32;12.30;67.90
19281;DHT22;9774;52.034;5.342;2023-12-20T09:32:03;12.30;67.90
19281;DHT22;9774;52.034;5.342;2023-12-20T09:34:31;12.30;67.90
19281;DHT22;9774;52.034;5.342;2023-12-20T09:36:58;12.30;67.90
19281;DHT22;9774;52.034;5.342;2023-12-20T09:39:25;12.40;68.00
19281;DHT22;9774;52.034;5.342;2023-12-20T09:42:00;12.40;68.00
19281;DHT22;9774;52.034;5.342;2023-12-20T09:44:28;12.40;67.90
19281;DHT22;9774;52.034;5.342;2023-12-20T09:46:56;12.40;68.00
19281;DHT22;9774;52.034;5.342;2023-12-20T09:49:27;12.50;68.10
19281;DHT22;9774;52.034;5.342;2023-12-20T09:51:54;12.50;68.00
19281;DHT22;9774;52.034;5.342;2023-12-20T09:54:23;12.50;67.90
19281;DHT22;9774;52.034;5.342;2023-12-20T09:56:50;12.50;67.90
19281;DHT22;9774;52.034;5.342;2023-12-20T09:59:17;12.60;68.00
19281;DHT22;9774;52.034;5.342;2023-12-20T10:01:44;12.60;67.90
19281;DHT22;9774;52.034;5.342;2023-12-20T10:04:13;12.60;67.90
19281;DHT22;9774;52.034;5.342;2023-12-20T10:06:42;12.60;67.80
19281;DHT22;9774;52.034;5.342;2023-12-20T10:09:10;12.70;67.70
19281;DHT22;9774;52.034;5.342;2023-12-20T10:11:38;12.70;67.70
19281;DHT22;9774;52.034;5.342;2023-12-20T10:14:06;12.70;67.60
19281;DHT22;9774;52.034;5.342;2023-12-20T10:16:34;12.70;67.50
19281;DHT22;9774;52.034;5.342;2023-12-20T10:19:01;12.70;67.50
19281;DHT22;9774;52.034;5.342;2023-12-20T10:21:28;12.70;67.50
19281;DHT22;9774;52.034;5.342;2023-12-20T10:23:58;12.80;67.50
19281;DHT22;9774;52.034;5.342;2023-12-20T10:29:10;12.80;67.60
19281;DHT22;9774;52.034;5.342;2023-12-20T10:31:37;12.80;67.50
19281;DHT22;9774;52.034;5.342;2023-12-20T10:34:05;12.80;67.50
19281;DHT22;9774;52.034;5.342;2023-12-20T10:36:32;12.90;67.70
19281;DHT22;9774;52.034;5.342;2023-12-20T10:39:03;12.90;67.60
19281;DHT22;9774;52.034;5.342;2023-12-20T10:41:33;12.90;67.60
19281;DHT22;9774;52.034;5.342;2023-12-20T10:44:07;13.00;67.50
19281;DHT22;9774;52.034;5.342;2023-12-20T10:46:37;13.00;67.50
19281;DHT22;9774;52.034;5.342;2023-12-20T10:49:07;13.00;67.50
19281;DHT22;9774;52.034;5.342;2023-12-20T10:51:36;13.00;67.50
19281;DHT22;9774;52.034;5.342;2023-12-20T10:54:05;13.10;67.50
19281;DHT22;9774;52.034;5.342;2023-12-20T10:56:35;13.10;67.50
19281;DHT22;9774;52.034;5.342;2023-12-20T10:59:05;13.10;67.40
19281;DHT22;9774;52.034;5.342;2023-12-20T11:01:36;13.20;67.40
19281;DHT22;9774;52.034;5.342;2023-12-20T11:04:08;13.20;67.20
19281;DHT22;9774;52.034;5.342;2023-12-20T11:06:47;13.20;66.80
19281;DHT22;9774;52.034;5.342;2023-12-20T11:09:23;13.20;66.80
19281;DHT22;9774;52.034;5.342;2023-12-20T11:11:59;13.20;66.80
19281;DHT22;9774;52.034;5.342;2023-12-20T11:14:38;13.30;67.00
19281;DHT22;9774;52.034;5.342;2023-12-20T11:17:09;13.30;67.00
19281;DHT22;9774;52.034;5.342;2023-12-20T11:20:05;13.40;67.10
19281;DHT22;9774;52.034;5.342;2023-12-20T11:22:35;13.40;66.60
19281;DHT22;9774;52.034;5.342;2023-12-20T11:25:04;13.40;66.90
19281;DHT22;9774;52.034;5.342;2023-12-20T11:27:34;13.50;67.00
19281;DHT22;9774;52.034;5.342;2023-12-20T11:30:03;13.50;66.90
19281;DHT22;9774;52.034;5.342;2023-12-20T11:32:34;13.50;66.80
19281;DHT22;9774;52.034;5.342;2023-12-20T11:35:18;13.50;66.60
19281;DHT22;9774;52.034;5.342;2023-12-20T11:37:46;13.50;66.20
19281;DHT22;9774;52.034;5.342;2023-12-20T11:40:15;13.60;66.50
19281;DHT22;9774;52.034;5.342;2023-12-20T11:42:44;13.60;66.40
19281;DHT22;9774;52.034;5.342;2023-12-20T11:45:17;13.60;66.20
19281;DHT22;9774;52.034;5.342;2023-12-20T11:47:48;13.60;66.30
19281;DHT22;9774;52.034;5.342;2023-12-20T11:50:17;13.60;66.20
19281;DHT22;9774;52.034;5.342;2023-12-20T11:52:45;13.60;65.90
19281;DHT22;9774;52.034;5.342;2023-12-20T11:55:12;13.60;66.00
19281;DHT22;9774;52.034;5.342;2023-12-20T11:57:40;13.70;66.20
19281;DHT22;9774;52.034;5.342;2023-12-20T12:00:07;13.70;66.10
19281;DHT22;9774;52.034;5.342;2023-12-20T12:02:34;13.70;66.20
19281;DHT22;9774;52.034;5.342;2023-12-20T12:05:02;13.70;66.20
19281;DHT22;9774;52.034;5.342;2023-12-20T12:07:32;13.70;66.20
19281;DHT22;9774;52.034;5.342;2023-12-20T12:10:00;13.70;66.20
19281;DHT22;9774;52.034;5.342;2023-12-20T12:12:27;13.80;66.20
19281;DHT22;9774;52.034;5.342;2023-12-20T12:14:55;13.80;66.00
19281;DHT22;9774;52.034;5.342;2023-12-20T12:17:23;13.80;66.00
19281;DHT22;9774;52.034;5.342;2023-12-20T12:19:50;13.80;66.00
19281;DHT22;9774;52.034;5.342;2023-12-20T12:22:17;13.80;65.90
19281;DHT22;9774;52.034;5.342;2023-12-20T12:24:47;13.80;65.60
19281;DHT22;9774;52.034;5.342;2023-12-20T12:27:15;13.70;65.50
19281;DHT22;9774;52.034;5.342;2023-12-20T12:30:01;13.80;65.50
19281;DHT22;9774;52.034;5.342;2023-12-20T12:32:29;13.70;65.90
19281;DHT22;9774;52.034;5.342;2023-12-20T12:34:56;13.80;65.70
19281;DHT22;9774;52.034;5.342;2023-12-20T12:37:23;13.80;65.90
19281;DHT22;9774;52.034;5.342;2023-12-20T12:39:54;13.80;66.00
19281;DHT22;9774;52.034;5.342;2023-12-20T12:42:21;13.80;65.90
19281;DHT22;9774;52.034;5.342;2023-12-20T12:44:51;13.80;66.00
19281;DHT22;9774;52.034;5.342;2023-12-20T12:47:18;13.80;66.00
19281;DHT22;9774;52.034;5.342;2023-12-20T12:49:45;13.80;65.90
19281;DHT22;9774;52.034;5.342;2023-12-20T12:52:12;13.80;66.00
19281;DHT22;9774;52.034;5.342;2023-12-20T12:54:39;13.80;65.90
19281;DHT22;9774;52.034;5.342;2023-12-20T12:57:08;13.90;66.00
19281;DHT22;9774;52.034;5.342;2023-12-20T12:59:35;13.90;66.10
19281;DHT22;9774;52.034;5.342;2023-12-20T13:02:02;13.90;65.90
19281;DHT22;9774;52.034;5.342;2023-12-20T13:04:29;13.90;65.90
19281;DHT22;9774;52.034;5.342;2023-12-20T13:06:56;13.90;65.90
19281;DHT22;9774;52.034;5.342;2023-12-20T13:09:24;13.90;65.80
19281;DHT22;9774;52.034;5.342;2023-12-20T13:11:51;13.90;65.70
19281;DHT22;9774;52.034;5.342;2023-12-20T13:14:19;13.90;65.70
19281;DHT22;9774;52.034;5.342;2023-12-20T13:16:46;13.90;65.60
19281;DHT22;9774;52.034;5.342;2023-12-20T13:19:13;13.90;65.60
19281;DHT22;9774;52.034;5.342;2023-12-20T13:21:40;13.90;65.60
19281;DHT22;9774;52.034;5.342;2023-12-20T13:24:07;13.90;65.60
19281;DHT22;9774;52.034;5.342;2023-12-20T13:26:34;13.90;65.60
19281;DHT22;9774;52.034;5.342;2023-12-20T13:29:01;13.90;65.50
19281;DHT22;9774;52.034;5.342;2023-12-20T13:31:30;13.90;65.40
19281;DHT22;9774;52.034;5.342;2023-12-20T13:33:57;13.90;65.60
19281;DHT22;9774;52.034;5.342;2023-12-20T13:36:24;13.90;65.50
19281;DHT22;9774;52.034;5.342;2023-12-20T13:38:51;13.90;65.40
19281;DHT22;9774;52.034;5.342;2023-12-20T13:41:18;13.90;65.50
19281;DHT22;9774;52.034;5.342;2023-12-20T13:43:45;13.90;65.40
19281;DHT22;9774;52.034;5.342;2023-12-20T13:46:12;13.90;65.30
19281;DHT22;9774;52.034;5.342;2023-12-20T13:48:41;13.90;65.20
19281;DHT22;9774;52.034;5.342;2023-12-20T13:51:08;13.90;65.00
19281;DHT22;9774;52.034;5.342;2023-12-20T13:53:35;14.00;65.20
19281;DHT22;9774;52.034;5.342;2023-12-20T13:56:04;13.90;65.10
19281;DHT22;9774;52.034;5.342;2023-12-20T13:58:31;14.00;65.10
19281;DHT22;9774;52.034;5.342;2023-12-20T14:00:59;13.90;65.10
19281;DHT22;9774;52.034;5.342;2023-12-20T14:03:26;14.00;65.20
19281;DHT22;9774;52.034;5.342;2023-12-20T14:05:54;14.00;65.10
19281;DHT22;9774;52.034;5.342;2023-12-20T14:08:21;14.00;65.00
19281;DHT22;9774;52.034;5.342;2023-12-20T14:10:50;14.00;65.10
19281;DHT22;9774;52.034;5.342;2023-12-20T14:13:18;14.00;65.10
19281;DHT22;9774;52.034;5.342;2023-12-20T14:15:46;14.00;64.90
19281;DHT22;9774;52.034;5.342;2023-12-20T14:18:15;14.00;64.80
19281;DHT22;9774;52.034;5.342;2023-12-20T14:20:42;14.00;64.50
19281;DHT22;9774;52.034;5.342;2023-12-20T14:23:11;14.00;64.70
19281;DHT22;9774;52.034;5.342;2023-12-20T14:25:40;14.00;64.50
19281;DHT22;9774;52.034;5.342;2023-12-20T14:28:07;14.00;64.60
19281;DHT22;9774;52.034;5.342;2023-12-20T14:30:35;14.00;64.70
19281;DHT22;9774;52.034;5.342;2023-12-20T14:33:04;14.00;64.70
19281;DHT22;9774;52.034;5.342;2023-12-20T14:35:31;14.00;64.60
19281;DHT22;9774;52.034;5.342;2023-12-20T14:37:58;13.90;64.60
19281;DHT22;9774;52.034;5.342;2023-12-20T14:40:26;14.00;64.80
19281;DHT22;9774;52.034;5.342;2023-12-20T14:42:53;14.00;65.50
19281;DHT22;9774;52.034;5.342;2023-12-20T14:45:21;13.90;64.70
19281;DHT22;9774;52.034;5.342;2023-12-20T14:47:48;13.90;65.50
19281;DHT22;9774;52.034;5.342;2023-12-20T14:50:15;13.90;64.70
19281;DHT22;9774;52.034;5.342;2023-12-20T14:52:44;13.90;64.80
19281;DHT22;9774;52.034;5.342;2023-12-20T14:55:11;13.90;64.90
19281;DHT22;9774;52.034;5.342;2023-12-20T14:57:39;13.90;64.80
19281;DHT22;9774;52.034;5.342;2023-12-20T15:00:07;13.80;64.90
19281;DHT22;9774;52.034;5.342;2023-12-20T15:02:35;13.80;64.90
19281;DHT22;9774;52.034;5.342;2023-12-20T15:05:01;13.80;65.00
19281;DHT22;9774;52.034;5.342;2023-12-20T15:07:29;13.80;65.00
19281;DHT22;9774;52.034;5.342;2023-12-20T15:09:56;13.80;65.00
19281;DHT22;9774;52.034;5.342;2023-12-20T15:12:23;13.80;65.10
19281;DHT22;9774;52.034;5.342;2023-12-20T15:14:51;13.70;65.00
19281;DHT22;9774;52.034;5.342;2023-12-20T15:17:18;13.70;65.00
19281;DHT22;9774;52.034;5.342;2023-12-20T15:19:45;13.70;65.10
19281;DHT22;9774;52.034;5.342;2023-12-20T15:22:12;13.70;65.10
19281;DHT22;9774;52.034;5.342;2023-12-20T15:24:39;13.60;65.20
19281;DHT22;9774;52.034;5.342;2023-12-20T15:27:08;13.60;65.20
19281;DHT22;9774;52.034;5.342;2023-12-20T15:29:35;13.60;65.20
19281;DHT22;9774;52.034;5.342;2023-12-20T15:32:04;13.60;65.40
19281;DHT22;9774;52.034;5.342;2023-12-20T15:34:32;13.50;65.40
19281;DHT22;9774;52.034;5.342;2023-12-20T15:36:59;13.50;65.50
19281;DHT22;9774;52.034;5.342;2023-12-20T15:39:26;13.50;65.60
19281;DHT22;9774;52.034;5.342;2023-12-20T15:41:53;13.50;65.70
19281;DHT22;9774;52.034;5.342;2023-12-20T15:44:20;13.50;65.70
19281;DHT22;9774;52.034;5.342;2023-12-20T15:46:47;13.50;65.80
19281;DHT22;9774;52.034;5.342;2023-12-20T15:49:15;13.50;65.80
19281;DHT22;9774;52.034;5.342;2023-12-20T15:51:44;13.40;65.80
19281;DHT22;9774;52.034;5.342;2023-12-20T15:54:11;13.40;65.90